sensor_id;sensor_type;location;lat;lon;timestamp;P1;durP1;ratioP1;P2;durP2;ratioP2
12816;SDS011;6473;51.552;6.716;2023-08-31T00:00:22;3.30;;;2.90;;
12816;SDS011;6473;51.552;6.716;2023-08-31T00:02:50;4.80;;;3.00;;
12816;SDS011;6473;51.552;6.716;2023-08-31T00:05:16;4.05;;;3.45;;
12816;SDS011;6473;51.552;6.716;2023-08-31T00:07:44;6.65;;;3.22;;
12816;SDS011;6473;51.552;6.716;2023-08-31T00:10:11;5.80;;;3.58;;
12816;SDS011;6473;51.552;6.716;2023-08-31T00:12:38;3.35;;;3.03;;
12816;SDS011;6473;51.552;6.716;2023-08-31T00:15:07;4.47;;;3.08;;
12816;SDS011;6473;51.552;6.716;2023-08-31T00:17:35;4.93;;;2.97;;
12816;SDS011;6473;51.552;6.716;2023-08-31T00:20:03;5.68;;;3.50;;
12816;SDS011;6473;51.552;6.716;2023-08-31T00:22:33;4.55;;;3.78;;
12816;SDS011;6473;51.552;6.716;2023-08-31T00:24:59;6.97;;;3.60;;
12816;SDS011;6473;51.552;6.716;2023-08-31T00:27:26;5.72;;;3.30;;
12816;SDS011;6473;51.552;6.716;2023-08-31T00:29:55;5.45;;;3.22;;
12816;SDS011;6473;51.552;6.716;2023-08-31T00:32:24;6.35;;;3.60;;
12816;SDS011;6473;51.552;6.716;2023-08-31T00:34:51;6.85;;;3.85;;
12816;SDS011;6473;51.552;6.716;2023-08-31T00:37:18;5.03;;;3.58;;
12816;SDS011;6473;51.552;6.716;2023-08-31T00:39:46;7.72;;;3.85;;
12816;SDS011;6473;51.552;6.716;2023-08-31T00:42:16;3.60;;;3.30;;
12816;SDS011;6473;51.552;6.716;2023-08-31T00:44:44;5.95;;;3.70;;
12816;SDS011;6473;51.552;6.716;2023-08-31T00:47:12;7.22;;;3.78;;
12816;SDS011;6473;51.552;6.716;2023-08-31T00:49:41;4.40;;;3.78;;
12816;SDS011;6473;51.552;6.716;2023-08-31T00:52:08;6.05;;;4.00;;
12816;SDS011;6473;51.552;6.716;2023-08-31T00:54:35;5.75;;;4.20;;
12816;SDS011;6473;51.552;6.716;2023-08-31T00:57:03;7.65;;;4.10;;
12816;SDS011;6473;51.552;6.716;2023-08-31T00:59:30;4.35;;;3.88;;
12816;SDS011;6473;51.552;6.716;2023-08-31T01:01:58;7.00;;;4.20;;
12816;SDS011;6473;51.552;6.716;2023-08-31T01:04:34;5.70;;;4.00;;
12816;SDS011;6473;51.552;6.716;2023-08-31T01:07:18;6.03;;;4.07;;
12816;SDS011;6473;51.552;6.716;2023-08-31T01:09:52;4.63;;;4.20;;
12816;SDS011;6473;51.552;6.716;2023-08-31T01:12:29;4.57;;;3.58;;
12816;SDS011;6473;51.552;6.716;2023-08-31T01:15:03;6.75;;;3.97;;
12816;SDS011;6473;51.552;6.716;2023-08-31T01:17:34;6.60;;;4.20;;
12816;SDS011;6473;51.552;6.716;2023-08-31T01:20:08;4.40;;;4.00;;
12816;SDS011;6473;51.552;6.716;2023-08-31T01:22:43;6.53;;;4.28;;
12816;SDS011;6473;51.552;6.716;2023-08-31T01:25:15;5.75;;;4.60;;
12816;SDS011;6473;51.552;6.716;2023-08-31T01:27:43;5.15;;;4.35;;
12816;SDS011;6473;51.552;6.716;2023-08-31T01:30:10;5.03;;;4.53;;
12816;SDS011;6473;51.552;6.716;2023-08-31T01:32:37;7.22;;;4.55;;
12816;SDS011;6473;51.552;6.716;2023-08-31T01:35:10;6.40;;;5.38;;
12816;SDS011;6473;51.552;6.716;2023-08-31T01:37:39;7.30;;;4.93;;
12816;SDS011;6473;51.552;6.716;2023-08-31T01:40:11;7.35;;;4.68;;
12816;SDS011;6473;51.552;6.716;2023-08-31T01:42:46;5.18;;;4.68;;
12816;SDS011;6473;51.552;6.716;2023-08-31T01:45:14;5.45;;;4.82;;
12816;SDS011;6473;51.552;6.716;2023-08-31T01:47:45;5.18;;;4.60;;
12816;SDS011;6473;51.552;6.716;2023-08-31T01:50:12;6.13;;;4.78;;
12816;SDS011;6473;51.552;6.716;2023-08-31T01:52:39;5.90;;;4.88;;
12816;SDS011;6473;51.552;6.716;2023-08-31T01:55:06;8.60;;;4.88;;
12816;SDS011;6473;51.552;6.716;2023-08-31T01:57:33;5.68;;;4.82;;
12816;SDS011;6473;51.552;6.716;2023-08-31T02:00:18;7.03;;;4.75;;
12816;SDS011;6473;51.552;6.716;2023-08-31T02:02:46;6.22;;;5.55;;
12816;SDS011;6473;51.552;6.716;2023-08-31T02:05:13;7.43;;;5.05;;
12816;SDS011;6473;51.552;6.716;2023-08-31T02:07:40;7.65;;;5.13;;
12816;SDS011;6473;51.552;6.716;2023-08-31T02:10:07;6.82;;;5.38;;
12816;SDS011;6473;51.552;6.716;2023-08-31T02:12:34;6.32;;;5.18;;
12816;SDS011;6473;51.552;6.716;2023-08-31T02:15:03;6.20;;;5.60;;
12816;SDS011;6473;51.552;6.716;2023-08-31T02:17:32;6.40;;;5.40;;
12816;SDS011;6473;51.552;6.716;2023-08-31T02:19:59;6.90;;;5.90;;
12816;SDS011;6473;51.552;6.716;2023-08-31T02:22:29;6.60;;;5.90;;
12816;SDS011;6473;51.552;6.716;2023-08-31T02:24:56;6.00;;;5.18;;
12816;SDS011;6473;51.552;6.716;2023-08-31T02:27:23;5.78;;;5.28;;
12816;SDS011;6473;51.552;6.716;2023-08-31T02:29:50;6.35;;;5.75;;
12816;SDS011;6473;51.552;6.716;2023-08-31T02:32:16;5.43;;;4.90;;
12816;SDS011;6473;51.552;6.716;2023-08-31T02:34:47;6.15;;;5.50;;
12816;SDS011;6473;51.552;6.716;2023-08-31T02:37:14;7.03;;;5.60;;
12816;SDS011;6473;51.552;6.716;2023-08-31T02:39:41;6.75;;;5.50;;
12816;SDS011;6473;51.552;6.716;2023-08-31T02:42:08;6.75;;;5.90;;
12816;SDS011;6473;51.552;6.716;2023-08-31T02:44:35;7.50;;;5.85;;
12816;SDS011;6473;51.552;6.716;2023-08-31T02:47:01;6.63;;;5.55;;
12816;SDS011;6473;51.552;6.716;2023-08-31T02:49:28;6.80;;;6.03;;
12816;SDS011;6473;51.552;6.716;2023-08-31T02:51:57;7.00;;;6.30;;
12816;SDS011;6473;51.552;6.716;2023-08-31T02:54:23;6.63;;;5.47;;
12816;SDS011;6473;51.552;6.716;2023-08-31T02:56:50;6.40;;;5.80;;
12816;SDS011;6473;51.552;6.716;2023-08-31T02:59:17;6.43;;;5.55;;
12816;SDS011;6473;51.552;6.716;2023-08-31T03:01:44;6.65;;;5.93;;
12816;SDS011;6473;51.552;6.716;2023-08-31T03:04:12;6.68;;;6.07;;
12816;SDS011;6473;51.552;6.716;2023-08-31T03:06:39;6.70;;;6.03;;
12816;SDS011;6473;51.552;6.716;2023-08-31T03:09:07;9.15;;;6.97;;
12816;SDS011;6473;51.552;6.716;2023-08-31T03:11:35;8.25;;;6.60;;
12816;SDS011;6473;51.552;6.716;2023-08-31T03:14:03;9.00;;;7.20;;
12816;SDS011;6473;51.552;6.716;2023-08-31T03:16:30;8.63;;;6.55;;
12816;SDS011;6473;51.552;6.716;2023-08-31T03:18:57;7.78;;;6.88;;
12816;SDS011;6473;51.552;6.716;2023-08-31T03:21:24;9.75;;;7.40;;
12816;SDS011;6473;51.552;6.716;2023-08-31T03:23:51;8.55;;;7.15;;
12816;SDS011;6473;51.552;6.716;2023-08-31T03:26:19;8.90;;;7.57;;
12816;SDS011;6473;51.552;6.716;2023-08-31T03:28:45;9.15;;;7.30;;
12816;SDS011;6473;51.552;6.716;2023-08-31T03:31:13;10.88;;;7.90;;
12816;SDS011;6473;51.552;6.716;2023-08-31T03:33:41;9.23;;;8.00;;
12816;SDS011;6473;51.552;6.716;2023-08-31T03:36:08;12.48;;;8.57;;
12816;SDS011;6473;51.552;6.716;2023-08-31T03:38:35;9.63;;;8.68;;
12816;SDS011;6473;51.552;6.716;2023-08-31T03:41:03;10.52;;;9.43;;
12816;SDS011;6473;51.552;6.716;2023-08-31T03:43:32;12.20;;;9.77;;
12816;SDS011;6473;51.552;6.716;2023-08-31T03:45:59;11.27;;;10.18;;
12816;SDS011;6473;51.552;6.716;2023-08-31T03:48:27;11.57;;;9.48;;
12816;SDS011;6473;51.552;6.716;2023-08-31T03:50:54;11.23;;;9.88;;
12816;SDS011;6473;51.552;6.716;2023-08-31T03:53:22;13.23;;;10.35;;
12816;SDS011;6473;51.552;6.716;2023-08-31T03:55:53;11.40;;;10.25;;
12816;SDS011;6473;51.552;6.716;2023-08-31T03:58:23;12.43;;;10.07;;
12816;SDS011;6473;51.552;6.716;2023-08-31T04:00:53;12.52;;;9.50;;
12816;SDS011;6473;51.552;6.716;2023-08-31T04:03:20;11.73;;;9.57;;
12816;SDS011;6473;51.552;6.716;2023-08-31T04:05:47;9.93;;;8.90;;
12816;SDS011;6473;51.552;6.716;2023-08-31T04:08:14;12.43;;;9.82;;
12816;SDS011;6473;51.552;6.716;2023-08-31T04:10:41;13.77;;;12.18;;
12816;SDS011;6473;51.552;6.716;2023-08-31T04:13:08;13.63;;;11.50;;
12816;SDS011;6473;51.552;6.716;2023-08-31T04:15:34;15.88;;;12.13;;
12816;SDS011;6473;51.552;6.716;2023-08-31T04:18:03;15.82;;;13.55;;
12816;SDS011;6473;51.552;6.716;2023-08-31T04:20:32;18.63;;;13.05;;
12816;SDS011;6473;51.552;6.716;2023-08-31T04:22:59;14.90;;;13.07;;
12816;SDS011;6473;51.552;6.716;2023-08-31T04:25:28;16.77;;;12.52;;
12816;SDS011;6473;51.552;6.716;2023-08-31T04:27:56;14.57;;;11.60;;
12816;SDS011;6473;51.552;6.716;2023-08-31T04:30:23;13.45;;;11.27;;
12816;SDS011;6473;51.552;6.716;2023-08-31T04:32:51;12.10;;;10.93;;
12816;SDS011;6473;51.552;6.716;2023-08-31T04:35:19;14.85;;;10.35;;
12816;SDS011;6473;51.552;6.716;2023-08-31T04:37:47;12.23;;;10.35;;
12816;SDS011;6473;51.552;6.716;2023-08-31T04:40:13;13.95;;;10.20;;
12816;SDS011;6473;51.552;6.716;2023-08-31T04:42:40;11.43;;;10.30;;
12816;SDS011;6473;51.552;6.716;2023-08-31T04:45:07;10.35;;;9.35;;
12816;SDS011;6473;51.552;6.716;2023-08-31T04:47:35;10.77;;;9.30;;
12816;SDS011;6473;51.552;6.716;2023-08-31T04:50:02;11.82;;;8.75;;
12816;SDS011;6473;51.552;6.716;2023-08-31T04:52:32;9.95;;;8.88;;
12816;SDS011;6473;51.552;6.716;2023-08-31T04:55:00;9.50;;;8.60;;
12816;SDS011;6473;51.552;6.716;2023-08-31T04:57:28;10.77;;;9.27;;
12816;SDS011;6473;51.552;6.716;2023-08-31T04:59:55;10.00;;;9.00;;
12816;SDS011;6473;51.552;6.716;2023-08-31T05:02:22;9.73;;;8.73;;
12816;SDS011;6473;51.552;6.716;2023-08-31T05:04:49;12.88;;;9.60;;
12816;SDS011;6473;51.552;6.716;2023-08-31T05:07:16;10.50;;;9.40;;
12816;SDS011;6473;51.552;6.716;2023-08-31T05:09:44;10.23;;;9.20;;
12816;SDS011;6473;51.552;6.716;2023-08-31T05:12:11;10.82;;;9.68;;
12816;SDS011;6473;51.552;6.716;2023-08-31T05:14:37;11.43;;;9.50;;
12816;SDS011;6473;51.552;6.716;2023-08-31T05:17:04;12.15;;;10.85;;
12816;SDS011;6473;51.552;6.716;2023-08-31T05:19:31;14.88;;;10.43;;
12816;SDS011;6473;51.552;6.716;2023-08-31T05:21:58;11.55;;;9.77;;
12816;SDS011;6473;51.552;6.716;2023-08-31T05:24:25;13.02;;;10.13;;
12816;SDS011;6473;51.552;6.716;2023-08-31T05:26:53;11.45;;;10.20;;
12816;SDS011;6473;51.552;6.716;2023-08-31T05:32:20;10.43;;;9.35;;
12816;SDS011;6473;51.552;6.716;2023-08-31T05:34:47;12.52;;;9.00;;
12816;SDS011;6473;51.552;6.716;2023-08-31T05:37:14;10.20;;;9.20;;
12816;SDS011;6473;51.552;6.716;2023-08-31T05:39:41;10.60;;;8.93;;
12816;SDS011;6473;51.552;6.716;2023-08-31T05:42:09;9.20;;;8.30;;
12816;SDS011;6473;51.552;6.716;2023-08-31T05:44:36;9.60;;;8.32;;
12816;SDS011;6473;51.552;6.716;2023-08-31T05:47:03;10.45;;;8.98;;
12816;SDS011;6473;51.552;6.716;2023-08-31T05:49:30;9.43;;;7.80;;
12816;SDS011;6473;51.552;6.716;2023-08-31T05:51:58;9.90;;;8.73;;
12816;SDS011;6473;51.552;6.716;2023-08-31T05:54:25;11.30;;;7.75;;
12816;SDS011;6473;51.552;6.716;2023-08-31T05:56:52;8.55;;;7.50;;
12816;SDS011;6473;51.552;6.716;2023-08-31T05:59:20;10.52;;;8.38;;
12816;SDS011;6473;51.552;6.716;2023-08-31T06:01:47;9.95;;;7.97;;
12816;SDS011;6473;51.552;6.716;2023-08-31T06:04:14;9.15;;;7.20;;
12816;SDS011;6473;51.552;6.716;2023-08-31T06:06:41;8.23;;;7.10;;
12816;SDS011;6473;51.552;6.716;2023-08-31T06:09:07;9.13;;;8.23;;
12816;SDS011;6473;51.552;6.716;2023-08-31T06:11:36;8.35;;;7.40;;
12816;SDS011;6473;51.552;6.716;2023-08-31T06:14:04;7.97;;;7.18;;
12816;SDS011;6473;51.552;6.716;2023-08-31T06:16:32;7.22;;;6.43;;
12816;SDS011;6473;51.552;6.716;2023-08-31T06:18:59;8.60;;;6.25;;
12816;SDS011;6473;51.552;6.716;2023-08-31T06:21:26;6.75;;;6.03;;
12816;SDS011;6473;51.552;6.716;2023-08-31T06:23:53;7.63;;;5.70;;
12816;SDS011;6473;51.552;6.716;2023-08-31T06:26:19;36.15;;;27.75;;
12816;SDS011;6473;51.552;6.716;2023-08-31T06:28:46;6.75;;;5.43;;
12816;SDS011;6473;51.552;6.716;2023-08-31T06:31:13;6.05;;;5.35;;
12816;SDS011;6473;51.552;6.716;2023-08-31T06:33:41;5.72;;;4.60;;
12816;SDS011;6473;51.552;6.716;2023-08-31T06:36:08;4.75;;;4.32;;
12816;SDS011;6473;51.552;6.716;2023-08-31T06:38:35;4.45;;;3.92;;
12816;SDS011;6473;51.552;6.716;2023-08-31T06:41:02;5.15;;;4.25;;
12816;SDS011;6473;51.552;6.716;2023-08-31T06:43:29;4.72;;;4.05;;
12816;SDS011;6473;51.552;6.716;2023-08-31T06:45:56;4.30;;;3.40;;
12816;SDS011;6473;51.552;6.716;2023-08-31T06:48:23;4.18;;;3.67;;
12816;SDS011;6473;51.552;6.716;2023-08-31T06:50:51;6.13;;;3.53;;
12816;SDS011;6473;51.552;6.716;2023-08-31T06:53:18;5.13;;;3.28;;
12816;SDS011;6473;51.552;6.716;2023-08-31T06:55:45;3.40;;;3.10;;
12816;SDS011;6473;51.552;6.716;2023-08-31T06:58:12;4.18;;;3.45;;
12816;SDS011;6473;51.552;6.716;2023-08-31T07:00:39;3.55;;;3.20;;
12816;SDS011;6473;51.552;6.716;2023-08-31T07:03:06;3.92;;;3.10;;
12816;SDS011;6473;51.552;6.716;2023-08-31T07:05:33;3.35;;;3.05;;
12816;SDS011;6473;51.552;6.716;2023-08-31T07:08:03;4.05;;;3.05;;
12816;SDS011;6473;51.552;6.716;2023-08-31T07:10:30;5.88;;;3.38;;
12816;SDS011;6473;51.552;6.716;2023-08-31T07:12:57;3.10;;;2.80;;
12816;SDS011;6473;51.552;6.716;2023-08-31T07:15:24;4.15;;;3.30;;
12816;SDS011;6473;51.552;6.716;2023-08-31T07:17:50;3.45;;;2.75;;
12816;SDS011;6473;51.552;6.716;2023-08-31T07:20:17;7.00;;;3.33;;
12816;SDS011;6473;51.552;6.716;2023-08-31T07:22:44;3.20;;;3.00;;
12816;SDS011;6473;51.552;6.716;2023-08-31T07:25:12;3.53;;;2.80;;
12816;SDS011;6473;51.552;6.716;2023-08-31T07:27:39;3.92;;;3.10;;
12816;SDS011;6473;51.552;6.716;2023-08-31T07:30:07;5.78;;;3.42;;
12816;SDS011;6473;51.552;6.716;2023-08-31T07:32:35;3.25;;;3.00;;
12816;SDS011;6473;51.552;6.716;2023-08-31T07:35:03;2.97;;;2.78;;
12816;SDS011;6473;51.552;6.716;2023-08-31T07:37:30;3.78;;;2.72;;
12816;SDS011;6473;51.552;6.716;2023-08-31T07:39:56;4.95;;;2.95;;
12816;SDS011;6473;51.552;6.716;2023-08-31T07:42:24;3.30;;;2.67;;
12816;SDS011;6473;51.552;6.716;2023-08-31T07:44:51;3.35;;;2.78;;
12816;SDS011;6473;51.552;6.716;2023-08-31T07:47:18;4.63;;;2.50;;
12816;SDS011;6473;51.552;6.716;2023-08-31T07:49:45;6.50;;;2.67;;
12816;SDS011;6473;51.552;6.716;2023-08-31T07:52:12;3.03;;;2.35;;
12816;SDS011;6473;51.552;6.716;2023-08-31T07:54:39;3.10;;;2.63;;
12816;SDS011;6473;51.552;6.716;2023-08-31T07:57:06;5.43;;;2.25;;
12816;SDS011;6473;51.552;6.716;2023-08-31T07:59:35;3.30;;;2.30;;
12816;SDS011;6473;51.552;6.716;2023-08-31T08:02:04;3.88;;;2.13;;
12816;SDS011;6473;51.552;6.716;2023-08-31T08:04:31;3.70;;;2.53;;
12816;SDS011;6473;51.552;6.716;2023-08-31T08:06:58;4.50;;;2.60;;
12816;SDS011;6473;51.552;6.716;2023-08-31T08:09:25;2.58;;;2.38;;
12816;SDS011;6473;51.552;6.716;2023-08-31T08:11:52;3.47;;;2.38;;
12816;SDS011;6473;51.552;6.716;2023-08-31T08:14:18;2.65;;;2.38;;
12816;SDS011;6473;51.552;6.716;2023-08-31T08:16:47;4.45;;;2.70;;
12816;SDS011;6473;51.552;6.716;2023-08-31T08:19:14;4.05;;;2.35;;
12816;SDS011;6473;51.552;6.716;2023-08-31T08:21:48;2.67;;;2.47;;
12816;SDS011;6473;51.552;6.716;2023-08-31T08:24:14;3.22;;;2.42;;
12816;SDS011;6473;51.552;6.716;2023-08-31T08:26:41;3.08;;;2.30;;
12816;SDS011;6473;51.552;6.716;2023-08-31T08:29:08;4.13;;;2.42;;
12816;SDS011;6473;51.552;6.716;2023-08-31T08:31:35;4.70;;;2.30;;
12816;SDS011;6473;51.552;6.716;2023-08-31T08:34:03;3.30;;;2.08;;
12816;SDS011;6473;51.552;6.716;2023-08-31T08:36:30;2.28;;;2.17;;
12816;SDS011;6473;51.552;6.716;2023-08-31T08:38:57;4.97;;;2.17;;
12816;SDS011;6473;51.552;6.716;2023-08-31T08:41:24;2.95;;;2.35;;
12816;SDS011;6473;51.552;6.716;2023-08-31T08:43:54;2.35;;;2.15;;
12816;SDS011;6473;51.552;6.716;2023-08-31T08:46:27;4.35;;;2.25;;
12816;SDS011;6473;51.552;6.716;2023-08-31T08:48:54;2.58;;;2.33;;
12816;SDS011;6473;51.552;6.716;2023-08-31T08:51:22;3.50;;;2.08;;
12816;SDS011;6473;51.552;6.716;2023-08-31T08:53:49;2.90;;;2.40;;
12816;SDS011;6473;51.552;6.716;2023-08-31T08:56:18;2.63;;;2.30;;
12816;SDS011;6473;51.552;6.716;2023-08-31T08:58:45;3.70;;;2.53;;
12816;SDS011;6473;51.552;6.716;2023-08-31T09:01:12;4.70;;;2.60;;
12816;SDS011;6473;51.552;6.716;2023-08-31T09:03:42;2.63;;;2.20;;
12816;SDS011;6473;51.552;6.716;2023-08-31T09:06:09;2.63;;;1.90;;
12816;SDS011;6473;51.552;6.716;2023-08-31T09:08:38;2.38;;;2.17;;
12816;SDS011;6473;51.552;6.716;2023-08-31T09:11:07;2.50;;;1.85;;
12816;SDS011;6473;51.552;6.716;2023-08-31T09:13:38;2.63;;;1.80;;
12816;SDS011;6473;51.552;6.716;2023-08-31T09:16:05;2.65;;;2.33;;
12816;SDS011;6473;51.552;6.716;2023-08-31T09:18:32;3.55;;;2.35;;
12816;SDS011;6473;51.552;6.716;2023-08-31T09:21:00;3.53;;;2.17;;
12816;SDS011;6473;51.552;6.716;2023-08-31T09:23:27;3.45;;;2.25;;
12816;SDS011;6473;51.552;6.716;2023-08-31T09:25:55;3.38;;;2.20;;
12816;SDS011;6473;51.552;6.716;2023-08-31T09:28:25;3.50;;;2.20;;
12816;SDS011;6473;51.552;6.716;2023-08-31T09:31:06;4.75;;;2.60;;
12816;SDS011;6473;51.552;6.716;2023-08-31T09:33:34;3.88;;;2.67;;
12816;SDS011;6473;51.552;6.716;2023-08-31T09:36:01;4.03;;;2.15;;
12816;SDS011;6473;51.552;6.716;2023-08-31T09:38:29;2.80;;;2.38;;
12816;SDS011;6473;51.552;6.716;2023-08-31T09:41:01;3.13;;;2.40;;
12816;SDS011;6473;51.552;6.716;2023-08-31T09:43:30;2.90;;;2.67;;
12816;SDS011;6473;51.552;6.716;2023-08-31T09:45:57;3.60;;;2.53;;
12816;SDS011;6473;51.552;6.716;2023-08-31T09:48:26;4.13;;;2.45;;
12816;SDS011;6473;51.552;6.716;2023-08-31T09:50:53;3.63;;;2.20;;
12816;SDS011;6473;51.552;6.716;2023-08-31T09:53:22;2.50;;;2.30;;
12816;SDS011;6473;51.552;6.716;2023-08-31T09:55:50;3.97;;;2.50;;
12816;SDS011;6473;51.552;6.716;2023-08-31T09:58:19;3.95;;;2.42;;
12816;SDS011;6473;51.552;6.716;2023-08-31T10:00:48;3.22;;;2.17;;
12816;SDS011;6473;51.552;6.716;2023-08-31T10:03:16;3.75;;;1.77;;
12816;SDS011;6473;51.552;6.716;2023-08-31T10:05:43;5.10;;;2.15;;
12816;SDS011;6473;51.552;6.716;2023-08-31T10:08:10;1.67;;;1.50;;
12816;SDS011;6473;51.552;6.716;2023-08-31T10:10:38;3.25;;;1.85;;
12816;SDS011;6473;51.552;6.716;2023-08-31T10:13:06;2.80;;;1.80;;
12816;SDS011;6473;51.552;6.716;2023-08-31T10:15:35;7.22;;;2.15;;
12816;SDS011;6473;51.552;6.716;2023-08-31T10:18:03;2.45;;;1.70;;
12816;SDS011;6473;51.552;6.716;2023-08-31T10:20:31;1.70;;;1.50;;
12816;SDS011;6473;51.552;6.716;2023-08-31T10:22:59;2.55;;;1.60;;
12816;SDS011;6473;51.552;6.716;2023-08-31T10:25:39;2.92;;;1.70;;
12816;SDS011;6473;51.552;6.716;2023-08-31T10:28:30;4.78;;;1.63;;
12816;SDS011;6473;51.552;6.716;2023-08-31T10:31:08;3.65;;;1.80;;
12816;SDS011;6473;51.552;6.716;2023-08-31T10:33:39;2.22;;;1.85;;
12816;SDS011;6473;51.552;6.716;2023-08-31T10:36:09;2.65;;;1.88;;
12816;SDS011;6473;51.552;6.716;2023-08-31T10:38:38;3.20;;;1.75;;
12816;SDS011;6473;51.552;6.716;2023-08-31T10:41:18;3.38;;;1.92;;
12816;SDS011;6473;51.552;6.716;2023-08-31T10:43:47;2.45;;;1.60;;
12816;SDS011;6473;51.552;6.716;2023-08-31T10:46:27;3.38;;;1.80;;
12816;SDS011;6473;51.552;6.716;2023-08-31T10:48:56;2.35;;;1.80;;
12816;SDS011;6473;51.552;6.716;2023-08-31T10:51:25;2.88;;;1.88;;
12816;SDS011;6473;51.552;6.716;2023-08-31T10:54:03;5.07;;;1.92;;
12816;SDS011;6473;51.552;6.716;2023-08-31T10:56:31;3.03;;;2.03;;
12816;SDS011;6473;51.552;6.716;2023-08-31T10:58:59;4.25;;;2.05;;
12816;SDS011;6473;51.552;6.716;2023-08-31T11:04:23;2.35;;;1.48;;
12816;SDS011;6473;51.552;6.716;2023-08-31T11:09:37;2.45;;;1.70;;
12816;SDS011;6473;51.552;6.716;2023-08-31T11:12:05;2.53;;;2.10;;
12816;SDS011;6473;51.552;6.716;2023-08-31T11:14:32;4.47;;;2.10;;
12816;SDS011;6473;51.552;6.716;2023-08-31T11:17:00;3.40;;;1.90;;
12816;SDS011;6473;51.552;6.716;2023-08-31T11:19:30;2.95;;;1.80;;
12816;SDS011;6473;51.552;6.716;2023-08-31T11:21:57;4.43;;;1.88;;
12816;SDS011;6473;51.552;6.716;2023-08-31T11:24:26;2.58;;;1.90;;
12816;SDS011;6473;51.552;6.716;2023-08-31T11:26:53;2.85;;;1.80;;
12816;SDS011;6473;51.552;6.716;2023-08-31T11:29:20;3.17;;;2.00;;
12816;SDS011;6473;51.552;6.716;2023-08-31T11:31:47;2.05;;;1.80;;
12816;SDS011;6473;51.552;6.716;2023-08-31T11:34:15;2.33;;;1.83;;
12816;SDS011;6473;51.552;6.716;2023-08-31T11:36:44;2.75;;;1.90;;
12816;SDS011;6473;51.552;6.716;2023-08-31T11:39:12;3.38;;;1.70;;
12816;SDS011;6473;51.552;6.716;2023-08-31T11:41:39;4.57;;;2.03;;
12816;SDS011;6473;51.552;6.716;2023-08-31T11:44:08;3.83;;;1.98;;
12816;SDS011;6473;51.552;6.716;2023-08-31T11:46:35;2.28;;;1.75;;
12816;SDS011;6473;51.552;6.716;2023-08-31T11:49:02;4.07;;;1.90;;
12816;SDS011;6473;51.552;6.716;2023-08-31T11:51:32;2.95;;;1.65;;
12816;SDS011;6473;51.552;6.716;2023-08-31T11:53:59;1.77;;;1.48;;
12816;SDS011;6473;51.552;6.716;2023-08-31T11:56:28;2.40;;;1.50;;
12816;SDS011;6473;51.552;6.716;2023-08-31T11:59:06;4.07;;;1.40;;
12816;SDS011;6473;51.552;6.716;2023-08-31T12:01:37;2.97;;;1.27;;
12816;SDS011;6473;51.552;6.716;2023-08-31T12:04:09;4.13;;;1.30;;
12816;SDS011;6473;51.552;6.716;2023-08-31T12:06:39;2.97;;;1.50;;
12816;SDS011;6473;51.552;6.716;2023-08-31T12:09:06;2.20;;;1.23;;
12816;SDS011;6473;51.552;6.716;2023-08-31T12:11:33;1.67;;;1.35;;
12816;SDS011;6473;51.552;6.716;2023-08-31T12:14:01;5.00;;;1.83;;
12816;SDS011;6473;51.552;6.716;2023-08-31T12:16:32;6.10;;;1.70;;
12816;SDS011;6473;51.552;6.716;2023-08-31T12:19:01;3.78;;;1.67;;
12816;SDS011;6473;51.552;6.716;2023-08-31T12:21:30;4.97;;;1.80;;
12816;SDS011;6473;51.552;6.716;2023-08-31T12:23:58;1.92;;;1.55;;
12816;SDS011;6473;51.552;6.716;2023-08-31T12:26:25;1.70;;;1.45;;
12816;SDS011;6473;51.552;6.716;2023-08-31T12:28:52;2.47;;;1.38;;
12816;SDS011;6473;51.552;6.716;2023-08-31T12:31:19;2.42;;;1.50;;
12816;SDS011;6473;51.552;6.716;2023-08-31T12:33:46;3.10;;;1.55;;
12816;SDS011;6473;51.552;6.716;2023-08-31T12:36:13;2.38;;;1.48;;
12816;SDS011;6473;51.552;6.716;2023-08-31T12:38:40;2.25;;;1.40;;
12816;SDS011;6473;51.552;6.716;2023-08-31T12:41:08;2.63;;;1.42;;
12816;SDS011;6473;51.552;6.716;2023-08-31T12:43:35;3.70;;;1.60;;
12816;SDS011;6473;51.552;6.716;2023-08-31T12:46:02;2.42;;;1.75;;
12816;SDS011;6473;51.552;6.716;2023-08-31T12:48:32;3.88;;;1.60;;
12816;SDS011;6473;51.552;6.716;2023-08-31T12:50:59;2.35;;;1.63;;
12816;SDS011;6473;51.552;6.716;2023-08-31T12:53:26;3.38;;;1.48;;
12816;SDS011;6473;51.552;6.716;2023-08-31T12:55:52;3.45;;;1.67;;
12816;SDS011;6473;51.552;6.716;2023-08-31T12:58:21;2.67;;;1.48;;
12816;SDS011;6473;51.552;6.716;2023-08-31T13:00:48;3.38;;;1.70;;
12816;SDS011;6473;51.552;6.716;2023-08-31T13:03:18;3.10;;;1.73;;
12816;SDS011;6473;51.552;6.716;2023-08-31T13:05:46;2.25;;;1.67;;
12816;SDS011;6473;51.552;6.716;2023-08-31T13:08:14;2.17;;;1.60;;
12816;SDS011;6473;51.552;6.716;2023-08-31T13:10:40;2.63;;;1.48;;
12816;SDS011;6473;51.552;6.716;2023-08-31T13:13:07;4.38;;;1.60;;
12816;SDS011;6473;51.552;6.716;2023-08-31T13:15:35;2.05;;;1.45;;
12816;SDS011;6473;51.552;6.716;2023-08-31T13:18:03;1.45;;;1.35;;
12816;SDS011;6473;51.552;6.716;2023-08-31T13:20:30;2.17;;;1.65;;
12816;SDS011;6473;51.552;6.716;2023-08-31T13:22:57;2.78;;;1.70;;
12816;SDS011;6473;51.552;6.716;2023-08-31T13:25:24;3.50;;;1.63;;
12816;SDS011;6473;51.552;6.716;2023-08-31T13:27:51;2.45;;;1.40;;
12816;SDS011;6473;51.552;6.716;2023-08-31T13:30:18;2.78;;;1.80;;
12816;SDS011;6473;51.552;6.716;2023-08-31T13:32:46;3.30;;;1.92;;
12816;SDS011;6473;51.552;6.716;2023-08-31T13:35:13;3.35;;;1.92;;
12816;SDS011;6473;51.552;6.716;2023-08-31T13:37:40;2.35;;;1.90;;
12816;SDS011;6473;51.552;6.716;2023-08-31T13:40:07;2.42;;;1.83;;
12816;SDS011;6473;51.552;6.716;2023-08-31T13:42:48;3.50;;;2.15;;
12816;SDS011;6473;51.552;6.716;2023-08-31T13:46:27;2.25;;;2.00;;
12816;SDS011;6473;51.552;6.716;2023-08-31T13:48:58;2.15;;;1.98;;
12816;SDS011;6473;51.552;6.716;2023-08-31T13:51:27;4.90;;;2.50;;
12816;SDS011;6473;51.552;6.716;2023-08-31T13:53:53;6.57;;;3.03;;
12816;SDS011;6473;51.552;6.716;2023-08-31T13:56:20;5.70;;;3.08;;
12816;SDS011;6473;51.552;6.716;2023-08-31T13:58:48;3.20;;;2.90;;
12816;SDS011;6473;51.552;6.716;2023-08-31T14:01:15;4.22;;;3.10;;
12816;SDS011;6473;51.552;6.716;2023-08-31T14:03:41;7.10;;;2.97;;
12816;SDS011;6473;51.552;6.716;2023-08-31T14:06:10;4.35;;;2.95;;
12816;SDS011;6473;51.552;6.716;2023-08-31T14:08:37;4.18;;;3.67;;
12816;SDS011;6473;51.552;6.716;2023-08-31T14:11:03;4.80;;;4.20;;
12816;SDS011;6473;51.552;6.716;2023-08-31T14:13:30;6.07;;;4.15;;
12816;SDS011;6473;51.552;6.716;2023-08-31T14:15:57;5.03;;;4.53;;
12816;SDS011;6473;51.552;6.716;2023-08-31T14:18:25;7.13;;;5.18;;
12816;SDS011;6473;51.552;6.716;2023-08-31T14:20:54;6.32;;;5.78;;
12816;SDS011;6473;51.552;6.716;2023-08-31T14:23:22;6.20;;;5.60;;
12816;SDS011;6473;51.552;6.716;2023-08-31T14:25:49;6.90;;;6.15;;
12816;SDS011;6473;51.552;6.716;2023-08-31T14:28:16;6.28;;;5.78;;
12816;SDS011;6473;51.552;6.716;2023-08-31T14:30:43;6.95;;;6.35;;
12816;SDS011;6473;51.552;6.716;2023-08-31T14:33:10;9.55;;;7.20;;
12816;SDS011;6473;51.552;6.716;2023-08-31T14:35:37;7.55;;;6.68;;
12816;SDS011;6473;51.552;6.716;2023-08-31T14:38:04;6.70;;;6.10;;
12816;SDS011;6473;51.552;6.716;2023-08-31T14:40:32;7.00;;;6.30;;
12816;SDS011;6473;51.552;6.716;2023-08-31T14:43:02;7.35;;;6.70;;
12816;SDS011;6473;51.552;6.716;2023-08-31T14:45:29;7.07;;;6.13;;
12816;SDS011;6473;51.552;6.716;2023-08-31T14:47:56;5.80;;;5.30;;
12816;SDS011;6473;51.552;6.716;2023-08-31T14:50:22;5.75;;;5.10;;
12816;SDS011;6473;51.552;6.716;2023-08-31T14:52:49;6.43;;;5.82;;
12816;SDS011;6473;51.552;6.716;2023-08-31T14:55:16;5.65;;;5.10;;
12816;SDS011;6473;51.552;6.716;2023-08-31T14:57:44;5.25;;;4.75;;
12816;SDS011;6473;51.552;6.716;2023-08-31T15:00:12;6.07;;;5.22;;
12816;SDS011;6473;51.552;6.716;2023-08-31T15:02:39;5.05;;;4.65;;
12816;SDS011;6473;51.552;6.716;2023-08-31T15:05:06;5.00;;;4.60;;
12816;SDS011;6473;51.552;6.716;2023-08-31T15:07:33;4.55;;;4.20;;
12816;SDS011;6473;51.552;6.716;2023-08-31T15:10:00;4.35;;;4.05;;
12816;SDS011;6473;51.552;6.716;2023-08-31T15:12:28;5.50;;;4.28;;